Share

Champion, NE

Cheyenne County Municipal (KSYF) Elev 3412 ft | 39.76 °N, 101.80 °W | Change Station

Current weather conditions updated 8 minutes ago

Clear
Clear
63 °F
Feels Like 63 °F
N
17
Wind Variable Wind from NNE
Gusts 24 mph
Sunrise 6:02 AM
Sunset 7:30 PM
Moon Waning Gibbous

Today is forecast to be Much Cooler than yesterday.

Pressure 29.97 in
Visibility 10.0 miles
Clouds Clear
Dew Point 43 °F
Humidity 48%
Rainfall 0.00 in
Snow Depth Not available.
UV 8 out of 16
Pollen 10.80 out of 12
Air Quality Not available.
Flu Activity Sporadic
METAR KSYF 191635Z AUTO 02015G21KT 10SM CLR 17/06 A2997 RMK AO2 T01730061

More Conditions Fewer Conditions

Pressure 29.97 in
Visibility 10.0 miles
Clouds Clear
Dew Point 43 °F
Humidity 48%
Rainfall 0.00 in
Snow Depth Not available.
UV 8 out of 16
Pollen 10.80 out of 12
Air Quality Not available.
Flu Activity Sporadic
METAR KSYF 191635Z AUTO 02015G21KT 10SM CLR 17/06 A2997 RMK AO2 T01730061

More Conditions Fewer Conditions

10-Day Weather Forecast

Almanac

Astronomy

Apr. 19, 2014 Rise Set
Actual Time 6:02 AM MDT 7:30 PM MDT
Civil Twilight 5:34 AM MDT 7:58 PM MDT
Nautical Twilight 4:59 AM MDT 8:33 PM MDT
Astronomical Twilight 4:23 AM MDT 9:09 PM MDT
Moon No Moon Rise 9:22 AM MDT
Length of Visible Light 14h 24m
Length of Day
13h 27m
Tomorrow will be 2m 29s longer.
Waning Gibbous, 78% of the Moon is Illuminated
Today
Waning Gibbous
Apr 22
Last Quarter
Apr 29
New
May 6
First Quarter
May 14
Full

Today's Extremes

State Highs State Lows

Community

  • A Glorious Morning
    A Glorious Morning
  • Tender Rays Of Hope
    Tender Rays Of Hope
  • Bleeding Hearts
    Bleeding Hearts
  • Sunset Silhouettes
    Sunset Silhouettes
  • FL sunset Perico Isle
    FL sunset Perico Isle

WunderPhotos

Upload Photos

1,702,795 photos uploaded!

WunderBlogs® & News

Nearby

Snow Depth

Station Depth Elevation
No new snow has been reported.

Coastal Water Temperatures

Place Temperature
No Stations Reporting

Earthquake Activity

City Distance Mag. Time & Date
No recent earthquake activity has been reported nearby.
Minimum magnitude displayed is 2.5.

Nearby Weather Stations

Station Location Temp. Dew Point Humidity Wind Precip. Elev Updated Type
MesoWest JOHNSON FARM , Champion, NE 55 °F 46 °F 71% North  at  13 mph 0.00 in / hr 3340 ft 9:00 AM MDT MADIS

Show More Stations Show Fewer Stations

What do you think?

We're not finished. Please let us know what you like, what you don't like, and what you are still missing.